Time;durP1;ratioP1;P1;durP2;ratioP2;P2;SDS_P1;SDS_P2;PMS_P1;PMS_P2;Temp;Humidity;BMP_temperature;BMP_pressure;BME280_temperature;BME280_humidity;BME280_pressure;Samples;Min_cycle;Max_cycle;Signal;HPM_P1;HPM_P2
2022/03/16 00:00:01;;;;;;;120.55;109.05;;;8.00;86.00;;;;;;5014961;28;20054;-75
2022/03/16 00:02:39;;;;;;;119.50;108.20;;;8.00;86.10;;;;;;5031753;28;20116;-75
2022/03/16 00:05:07;;;;;;;118.85;107.53;;;8.00;86.40;;;;;;5032902;28;20240;-75
2022/03/16 00:07:35;;;;;;;121.93;110.22;;;7.90;86.70;;;;;;5032583;28;20130;-75
2022/03/16 00:10:02;;;;;;;121.10;109.50;;;7.90;87.00;;;;;;5015711;28;20427;-75
2022/03/16 00:12:29;;;;;;;121.32;109.70;;;7.90;87.00;;;;;;5033348;28;20088;-74
2022/03/16 00:14:56;;;;;;;124.60;112.60;;;7.80;87.10;;;;;;5036367;28;20423;-75
2022/03/16 00:17:23;;;;;;;124.15;112.18;;;7.80;87.00;;;;;;5018444;28;20052;-75
2022/03/16 00:23:33;;;;;;;119.38;107.38;;;7.70;87.80;;;;;;5036267;28;20056;-74
2022/03/16 00:26:00;;;;;;;156.20;110.72;;;7.50;87.80;;;;;;5035914;28;20064;-74
2022/03/16 00:28:27;;;;;;;150.15;111.32;;;7.40;87.70;;;;;;5036052;28;20491;-74
2022/03/16 00:30:54;;;;;;;137.77;110.93;;;7.40;87.70;;;;;;5018425;28;20536;-75
2022/03/16 00:33:21;;;;;;;140.15;111.55;;;7.30;88.10;;;;;;5018389;28;20054;-75
2022/03/16 00:35:48;;;;;;;139.35;110.70;;;7.30;87.90;;;;;;5018398;28;20488;-76
2022/03/16 00:38:16;;;;;;;121.70;108.78;;;7.30;88.20;;;;;;5034542;28;20045;-75
2022/03/16 00:40:45;;;;;;;119.57;107.55;;;7.20;88.30;;;;;;5018172;28;20076;-75
2022/03/16 00:43:12;;;;;;;117.60;106.20;;;7.10;88.50;;;;;;5034866;28;20060;-75
2022/03/16 00:45:39;;;;;;;116.63;105.45;;;7.00;89.00;;;;;;5035019;28;20141;-75
2022/03/16 00:48:06;;;;;;;117.68;105.97;;;6.90;89.20;;;;;;5033857;28;20050;-75
2022/03/16 00:50:34;;;;;;;116.75;105.55;;;6.90;89.70;;;;;;5033928;28;20133;-74
2022/03/16 00:53:01;;;;;;;116.75;105.47;;;6.80;89.70;;;;;;5035781;28;20423;-75
2022/03/16 00:55:28;;;;;;;122.70;107.63;;;6.80;89.70;;;;;;5018269;28;20133;-74
2022/03/16 00:57:57;;;;;;;118.30;106.82;;;6.80;89.70;;;;;;5035201;28;20046;-74
2022/03/16 01:00:24;;;;;;;117.57;106.03;;;6.80;89.60;;;;;;5017594;28;20389;-75
2022/03/16 01:02:53;;;;;;;131.45;103.95;;;6.90;89.40;;;;;;5035765;28;20054;-74
2022/03/16 01:05:20;;;;;;;115.47;104.28;;;6.90;89.10;;;;;;5034358;28;20057;-75
2022/03/16 01:07:47;;;;;;;116.38;104.75;;;7.00;88.80;;;;;;5035432;28;20399;-75
2022/03/16 01:10:14;;;;;;;;;;;6.90;88.40;;;;;;5018402;28;20046;-74
2022/03/16 01:12:41;;;;;;;119.05;107.25;;;6.90;87.70;;;;;;5018365;28;19925;-74
2022/03/16 01:15:10;;;;;;;117.88;106.38;;;6.90;88.20;;;;;;5017918;28;20057;-74
2022/03/16 01:17:37;;;;;;;126.65;114.05;;;6.90;88.40;;;;;;5034152;28;20073;-75
2022/03/16 01:20:05;;;;;;;126.25;113.65;;;7.00;88.80;;;;;;5034076;28;20132;-75
2022/03/16 01:22:32;;;;;;;124.82;112.28;;;7.00;89.40;;;;;;5017716;28;20843;-74
2022/03/16 01:24:59;;;;;;;123.25;111.00;;;7.00;89.80;;;;;;5017598;28;20637;-75
2022/03/16 01:27:26;;;;;;;121.75;109.75;;;7.00;90.10;;;;;;5033688;28;20136;-75
2022/03/16 01:29:53;;;;;;;119.43;107.93;;;7.00;90.10;;;;;;4998646;28;20069;-75
2022/03/16 01:32:21;;;;;;;125.82;113.18;;;7.00;90.20;;;;;;4997817;28;20074;-74
2022/03/16 01:34:48;;;;;;;126.20;113.70;;;7.00;90.30;;;;;;4997565;28;21024;-74
2022/03/16 01:37:15;;;;;;;168.23;121.78;;;7.00;90.50;;;;;;4997466;28;20427;-74
2022/03/16 01:39:43;;;;;;;129.00;116.07;;;6.90;90.60;;;;;;4997403;28;20058;-75
2022/03/16 01:42:12;;;;;;;163.02;114.22;;;6.90;90.80;;;;;;4981776;28;20046;-75
2022/03/16 01:44:44;;;;;;;127.03;114.32;;;6.90;91.00;;;;;;4981506;28;20162;-74
2022/03/16 01:47:12;;;;;;;130.45;117.30;;;6.90;91.00;;;;;;5014349;28;20043;-74
2022/03/16 01:49:41;;;;;;;140.18;113.93;;;6.90;90.90;;;;;;4997650;28;20500;-74
2022/03/16 01:52:09;;;;;;;126.97;114.13;;;6.90;91.10;;;;;;4997630;28;20074;-76
2022/03/16 01:54:39;;;;;;;132.48;118.95;;;6.90;90.80;;;;;;4990734;28;20046;-75
2022/03/16 01:57:08;;;;;;;136.43;122.63;;;6.80;90.80;;;;;;5016544;28;20050;-74
2022/03/16 01:59:35;;;;;;;134.68;120.93;;;6.80;91.00;;;;;;5016576;28;20045;-74
2022/03/16 02:02:04;;;;;;;137.40;123.30;;;6.70;91.20;;;;;;5016841;28;20050;-74
2022/03/16 02:04:31;;;;;;;128.35;115.53;;;6.60;91.20;;;;;;4979726;28;20042;-74
2022/03/16 02:07:00;;;;;;;132.35;118.97;;;6.60;91.30;;;;;;4997015;28;20051;-75
2022/03/16 02:09:27;;;;;;;128.43;115.53;;;6.60;91.30;;;;;;4981148;28;20042;-75
2022/03/16 02:11:55;;;;;;;130.57;117.38;;;6.60;91.40;;;;;;4997786;28;20116;-74
2022/03/16 02:14:22;;;;;;;132.50;119.28;;;6.50;91.50;;;;;;5014362;28;20061;-74
2022/03/16 02:16:50;;;;;;;131.05;117.60;;;6.50;91.40;;;;;;5014868;28;20126;-75
2022/03/16 02:19:17;;;;;;;128.48;115.60;;;6.50;91.40;;;;;;5012950;28;20054;-75
2022/03/16 02:21:49;;;;;;;128.60;115.25;;;6.60;91.40;;;;;;4997210;28;20050;-74
2022/03/16 02:24:17;;;;;;;124.00;111.63;;;6.60;91.30;;;;;;4996823;28;20162;-75
2022/03/16 02:26:44;;;;;;;134.52;112.68;;;6.60;91.20;;;;;;4996796;28;20137;-74
2022/03/16 02:29:11;;;;;;;127.40;113.90;;;6.60;91.10;;;;;;5013037;28;20057;-75
2022/03/16 02:31:38;;;;;;;152.75;115.20;;;6.60;90.90;;;;;;4996891;28;20534;-75
2022/03/16 02:34:05;;;;;;;127.70;114.70;;;6.50;90.40;;;;;;5014373;28;20058;-74
2022/03/16 02:36:32;;;;;;;126.68;113.15;;;6.40;90.30;;;;;;5013573;28;20133;-74
2022/03/16 02:39:00;;;;;;;121.68;108.95;;;6.20;90.40;;;;;;5013981;28;20148;-74
2022/03/16 02:41:28;;;;;;;122.18;109.35;;;6.00;90.60;;;;;;4996691;28;20070;-74
2022/03/16 02:43:55;;;;;;;137.20;109.38;;;5.80;90.80;;;;;;4996750;28;20046;-74
2022/03/16 02:46:23;;;;;;;142.32;108.82;;;5.60;91.00;;;;;;4996863;28;21017;-74
2022/03/16 02:48:50;;;;;;;141.32;110.97;;;5.60;91.10;;;;;;4979922;28;20038;-74
2022/03/16 02:51:17;;;;;;;123.82;111.38;;;5.60;91.30;;;;;;5014338;28;20130;-74
2022/03/16 02:53:45;;;;;;;121.90;109.40;;;5.50;91.40;;;;;;5016609;28;20722;-74
2022/03/16 02:56:12;;;;;;;138.82;111.22;;;5.50;91.60;;;;;;5032944;28;20050;-74
2022/03/16 02:58:40;;;;;;;134.88;111.25;;;5.50;91.80;;;;;;5016433;28;20143;-74
2022/03/16 03:01:08;;;;;;;137.38;108.40;;;5.40;91.70;;;;;;5016123;28;20053;-74
2022/03/16 03:03:34;;;;;;;;;;;5.30;91.80;;;;;;5016711;28;20046;-74
2022/03/16 03:06:01;;;;;;;;;;;5.20;92.20;;;;;;5016794;28;20323;-74
2022/03/16 03:08:28;;;;;;;;;;;5.10;92.40;;;;;;5016196;28;19925;-74
2022/03/16 03:10:55;;;;;;;128.75;114.72;;;5.10;92.30;;;;;;5015624;28;20047;-74
2022/03/16 03:13:22;;;;;;;122.85;109.32;;;5.20;92.10;;;;;;5033849;28;20061;-74
2022/03/16 03:15:50;;;;;;;;;;;5.20;92.10;;;;;;5016176;28;20050;-74
2022/03/16 03:18:17;;;;;;;122.60;109.57;;;5.30;92.10;;;;;;5015756;28;19932;-74
2022/03/16 03:20:44;;;;;;;;;;;5.30;92.00;;;;;;5034217;28;20054;-74
2022/03/16 03:23:11;;;;;;;121.72;109.38;;;5.40;92.00;;;;;;5016010;28;19932;-74
2022/03/16 03:25:37;;;;;;;;;;;5.30;92.20;;;;;;5034146;28;20121;-74
2022/03/16 03:28:05;;;;;;;121.13;108.32;;;5.30;91.80;;;;;;5015817;28;19925;-74
2022/03/16 03:30:31;;;;;;;;;;;5.30;91.80;;;;;;5016501;28;20141;-74
2022/03/16 03:32:59;;;;;;;121.32;108.28;;;5.30;91.50;;;;;;5016551;28;19926;-74
2022/03/16 03:35:27;;;;;;;119.65;107.70;;;5.30;91.60;;;;;;5033083;28;20050;-74
2022/03/16 03:37:54;;;;;;;;;;;5.30;91.60;;;;;;5016079;28;20137;-74
2022/03/16 03:40:21;;;;;;;122.97;108.63;;;5.20;92.20;;;;;;5032361;28;19929;-74
2022/03/16 03:42:48;;;;;;;119.68;107.28;;;5.10;92.10;;;;;;4999077;28;20052;-74
2022/03/16 03:45:15;;;;;;;154.60;112.32;;;5.00;91.70;;;;;;5015140;28;20046;-74
2022/03/16 03:47:42;;;;;;;126.22;109.10;;;5.00;91.70;;;;;;5016601;28;20054;-74
2022/03/16 03:50:12;;;;;;;123.22;109.35;;;5.00;91.60;;;;;;5019069;28;20058;-74
2022/03/16 03:52:40;;;;;;;135.10;109.85;;;5.00;91.50;;;;;;5019110;28;20046;-74
2022/03/16 03:55:08;;;;;;;129.93;109.93;;;4.90;91.50;;;;;;5023195;28;20055;-74
2022/03/16 03:57:35;;;;;;;123.68;110.10;;;4.90;91.50;;;;;;5016180;28;20050;-74
2022/03/16 04:00:02;;;;;;;;;;;4.90;91.40;;;;;;4999689;28;20061;-74
2022/03/16 04:02:38;;;;;;;123.07;110.18;;;4.80;91.30;;;;;;5015951;28;19925;-74
2022/03/16 04:05:06;;;;;;;;;;;4.80;91.50;;;;;;5015806;28;20050;-74
2022/03/16 04:07:34;;;;;;;124.72;110.82;;;4.70;91.60;;;;;;5016801;28;19925;-74
2022/03/16 04:10:01;;;;;;;129.73;111.60;;;4.70;91.50;;;;;;5016955;28;20443;-74
2022/03/16 04:12:28;;;;;;;132.80;113.25;;;4.70;91.50;;;;;;4998915;28;20051;-74
2022/03/16 04:14:55;;;;;;;153.18;114.70;;;4.70;91.50;;;;;;4998821;28;20047;-74
2022/03/16 04:17:22;;;;;;;;;;;4.70;91.50;;;;;;4999210;28;20062;-75
2022/03/16 04:19:48;;;;;;;;;;;4.60;91.40;;;;;;5019115;28;20020;-74
2022/03/16 04:22:15;;;;;;;;;;;4.60;91.50;;;;;;5016279;28;20303;-74
2022/03/16 04:24:44;;;;;;;160.05;113.15;;;4.60;91.50;;;;;;4999262;28;19929;-74
2022/03/16 04:27:11;;;;;;;131.50;114.90;;;4.70;91.50;;;;;;4998762;28;20059;-73
2022/03/16 04:29:38;;;;;;;;;;;4.70;91.50;;;;;;4999087;28;20054;-74
2022/03/16 04:32:06;;;;;;;123.53;110.85;;;4.70;91.30;;;;;;5017060;28;19925;-74
2022/03/16 04:34:33;;;;;;;125.78;113.18;;;4.80;91.40;;;;;;4998741;28;20145;-74
2022/03/16 04:37:00;;;;;;;127.65;114.70;;;4.80;91.40;;;;;;5015942;28;20060;-74
2022/03/16 04:39:27;;;;;;;126.85;113.80;;;4.80;91.40;;;;;;4998784;28;20447;-74
2022/03/16 04:41:55;;;;;;;126.47;113.57;;;4.80;91.40;;;;;;5016445;28;20141;-74
2022/03/16 04:44:22;;;;;;;134.27;114.28;;;4.90;91.40;;;;;;4998479;28;20050;-74
2022/03/16 04:46:49;;;;;;;126.88;113.07;;;4.90;91.40;;;;;;5016047;28;20054;-74
2022/03/16 04:49:17;;;;;;;125.80;112.93;;;4.90;91.40;;;;;;5014510;28;20052;-73
2022/03/16 04:51:44;;;;;;;124.93;111.72;;;5.00;91.30;;;;;;5016327;28;20511;-74
2022/03/16 04:54:11;;;;;;;128.10;114.97;;;5.00;91.30;;;;;;5017732;28;20057;-74
2022/03/16 04:56:38;;;;;;;;;;;5.00;91.20;;;;;;4998464;28;20092;-74
2022/03/16 04:59:06;;;;;;;126.80;113.60;;;5.00;90.90;;;;;;5015422;28;19941;-74
2022/03/16 05:01:33;;;;;;;126.72;113.68;;;5.00;91.10;;;;;;4998367;28;20528;-74
2022/03/16 05:04:00;;;;;;;127.53;113.95;;;5.00;91.20;;;;;;4998123;28;20051;-74
2022/03/16 05:06:27;;;;;;;127.45;114.20;;;5.10;91.30;;;;;;4998198;28;20133;-74
2022/03/16 05:08:54;;;;;;;128.57;114.53;;;5.00;91.20;;;;;;5015434;28;20065;-74
2022/03/16 05:11:22;;;;;;;130.02;117.13;;;4.90;91.10;;;;;;4997669;28;20061;-74
2022/03/16 05:13:50;;;;;;;145.18;114.90;;;4.90;91.30;;;;;;4998040;28;20059;-74
2022/03/16 05:16:18;;;;;;;136.77;112.28;;;4.80;91.30;;;;;;5015799;28;20050;-74
2022/03/16 05:18:45;;;;;;;130.82;113.00;;;4.70;91.70;;;;;;4997902;28;20137;-74
2022/03/16 05:21:13;;;;;;;;;;;4.70;91.70;;;;;;4998474;28;20104;-74
2022/03/16 05:23:41;;;;;;;142.30;113.93;;;4.60;91.80;;;;;;4998187;28;19971;-73
2022/03/16 05:26:08;;;;;;;138.45;116.35;;;4.60;91.70;;;;;;4997640;28;20054;-74
2022/03/16 05:28:36;;;;;;;126.28;113.72;;;4.50;91.70;;;;;;4996316;28;20647;-74
2022/03/16 05:31:03;;;;;;;124.55;111.90;;;4.50;91.80;;;;;;4997618;28;20141;-74
2022/03/16 05:33:32;;;;;;;121.88;109.93;;;4.40;91.90;;;;;;5015311;28;20058;-74
2022/03/16 05:35:59;;;;;;;120.22;108.43;;;4.40;92.00;;;;;;5015181;28;20088;-74
2022/03/16 05:38:26;;;;;;;122.07;110.10;;;4.40;92.10;;;;;;4997261;28;20057;-73
2022/03/16 05:40:53;;;;;;;;;;;4.40;92.10;;;;;;5015695;28;20080;-74
2022/03/16 05:43:21;;;;;;;124.63;111.95;;;4.40;92.20;;;;;;5014124;28;20383;-73
2022/03/16 05:45:49;;;;;;;124.25;111.75;;;4.40;92.10;;;;;;4997562;28;20047;-73
2022/03/16 05:48:16;;;;;;;130.15;117.15;;;4.30;92.10;;;;;;5067866;23;20503;-74
2022/03/16 05:50:46;;;;;;;128.80;115.85;;;4.30;92.20;;;;;;5016571;28;20530;-73
2022/03/16 05:53:14;;;;;;;129.52;116.63;;;4.30;92.20;;;;;;5016801;28;20042;-74
2022/03/16 05:55:42;;;;;;;129.15;116.13;;;4.30;92.20;;;;;;5016933;28;20057;-74
2022/03/16 05:58:09;;;;;;;126.43;113.75;;;4.40;92.30;;;;;;5034480;28;20835;-73
2022/03/16 06:00:37;;;;;;;129.02;116.32;;;4.40;92.20;;;;;;5016337;28;20056;-74
2022/03/16 06:03:05;;;;;;;126.25;113.85;;;4.50;92.20;;;;;;5015070;28;20527;-74
2022/03/16 06:05:32;;;;;;;127.32;114.68;;;4.50;92.30;;;;;;5015715;28;20046;-74
2022/03/16 06:08:01;;;;;;;127.60;114.90;;;4.60;92.30;;;;;;5015723;28;20108;-74
2022/03/16 06:10:28;;;;;;;124.20;111.82;;;4.60;92.30;;;;;;5015335;28;20118;-74
2022/03/16 06:12:57;;;;;;;126.38;113.78;;;4.60;92.40;;;;;;5034284;28;20590;-73
2022/03/16 06:15:25;;;;;;;128.00;115.00;;;4.60;92.40;;;;;;5016074;28;20137;-74
2022/03/16 06:17:53;;;;;;;129.68;116.88;;;4.60;92.50;;;;;;5015829;28;20049;-74
2022/03/16 06:20:20;;;;;;;;;;;4.60;92.60;;;;;;5016435;28;20050;-73
2022/03/16 06:22:47;;;;;;;129.77;116.32;;;4.60;92.30;;;;;;5014697;28;19936;-74
2022/03/16 06:25:16;;;;;;;131.55;117.90;;;4.60;92.50;;;;;;5032602;28;20128;-74
2022/03/16 06:27:42;;;;;;;134.57;120.68;;;4.60;92.70;;;;;;5013531;28;20518;-74
2022/03/16 06:30:10;;;;;;;132.27;118.55;;;4.70;92.90;;;;;;5015391;28;20536;-74
2022/03/16 06:32:38;;;;;;;136.30;122.10;;;4.70;93.00;;;;;;5013983;28;20054;-74
2022/03/16 06:35:06;;;;;;;131.18;117.90;;;4.70;93.20;;;;;;5032168;28;20084;-74
2022/03/16 06:37:33;;;;;;;133.85;120.28;;;4.70;93.40;;;;;;5013010;28;20058;-73
2022/03/16 06:40:00;;;;;;;;;;;4.80;93.50;;;;;;5031958;28;20484;-75
2022/03/16 06:42:28;;;;;;;;;;;4.80;93.30;;;;;;5015434;28;19931;-73
2022/03/16 06:44:55;;;;;;;133.80;119.75;;;4.80;93.10;;;;;;5015322;28;19977;-73
2022/03/16 06:47:22;;;;;;;136.95;122.57;;;4.80;93.20;;;;;;5014134;28;20516;-75
2022/03/16 06:49:49;;;;;;;138.45;123.93;;;4.90;93.40;;;;;;5031043;28;20137;-74
2022/03/16 06:52:16;;;;;;;137.15;123.00;;;4.90;93.50;;;;;;5015333;28;20578;-75
2022/03/16 06:54:43;;;;;;;136.40;122.10;;;5.00;94.00;;;;;;5013589;28;20058;-75
2022/03/16 06:57:11;;;;;;;;;;;5.00;94.10;;;;;;5015006;28;20065;-75
2022/03/16 06:59:42;;;;;;;133.02;119.10;;;5.00;94.10;;;;;;5014177;28;20008;-74
2022/03/16 07:02:09;;;;;;;137.35;122.85;;;5.00;94.20;;;;;;5032035;28;20042;-75
2022/03/16 07:04:36;;;;;;;137.90;123.50;;;5.00;94.30;;;;;;5015385;28;20500;-75
2022/03/16 07:07:04;;;;;;;142.70;127.70;;;5.10;94.30;;;;;;5014734;28;20534;-76
2022/03/16 07:09:32;;;;;;;140.18;125.55;;;5.10;94.30;;;;;;5032968;28;20108;-76
2022/03/16 07:11:59;;;;;;;138.90;124.40;;;5.10;94.30;;;;;;5014348;28;20643;-75
2022/03/16 07:14:32;;;;;;;140.95;126.43;;;5.20;94.40;;;;;;5015451;28;20840;-75
2022/03/16 07:17:04;;;;;;;143.13;128.15;;;5.20;94.60;;;;;;5032886;28;20108;-75
2022/03/16 07:19:31;;;;;;;138.88;124.38;;;5.20;94.90;;;;;;5013012;28;20050;-75
2022/03/16 07:21:58;;;;;;;140.45;125.63;;;5.30;95.00;;;;;;5014235;28;20156;-75
2022/03/16 07:24:26;;;;;;;141.27;126.65;;;5.30;95.20;;;;;;5014110;28;20046;-75
2022/03/16 07:26:55;;;;;;;141.73;127.05;;;5.40;95.30;;;;;;5013336;28;20495;-75
2022/03/16 07:29:22;;;;;;;140.65;126.00;;;5.40;95.10;;;;;;5014518;28;20053;-75
2022/03/16 07:31:50;;;;;;;141.18;126.32;;;5.50;95.40;;;;;;5032274;28;20538;-75
2022/03/16 07:34:18;;;;;;;160.98;128.95;;;5.60;95.50;;;;;;5032632;28;20082;-77
2022/03/16 07:36:45;;;;;;;141.00;126.32;;;5.60;95.60;;;;;;5013427;28;20054;-76
2022/03/16 07:39:13;;;;;;;;;;;5.70;95.60;;;;;;5015542;28;20052;-75
2022/03/16 07:41:41;;;;;;;147.68;127.57;;;5.70;95.40;;;;;;5014989;28;19997;-76
2022/03/16 07:44:08;;;;;;;138.70;124.28;;;5.80;95.40;;;;;;5032566;28;20141;-76
2022/03/16 07:46:35;;;;;;;141.95;127.32;;;5.90;95.40;;;;;;5014958;28;20054;-76
2022/03/16 07:49:03;;;;;;;141.52;127.03;;;5.90;95.50;;;;;;5028450;28;20078;-76
2022/03/16 07:51:31;;;;;;;141.80;127.47;;;6.00;95.70;;;;;;5014795;28;20042;-75
2022/03/16 07:53:58;;;;;;;143.15;127.93;;;6.00;95.80;;;;;;5014944;28;20053;-76
2022/03/16 07:56:25;;;;;;;;;;;6.10;95.90;;;;;;5029842;28;20073;-75
2022/03/16 07:58:53;;;;;;;142.55;126.93;;;6.20;96.10;;;;;;5015308;28;19925;-78
2022/03/16 08:01:21;;;;;;;141.40;126.75;;;6.20;95.80;;;;;;5014752;28;20050;-76
2022/03/16 08:03:48;;;;;;;140.57;126.43;;;6.30;96.00;;;;;;5014204;28;20060;-77
2022/03/16 08:06:15;;;;;;;137.75;123.82;;;6.40;96.00;;;;;;5014067;28;20868;-77
2022/03/16 08:08:44;;;;;;;140.25;126.10;;;6.50;96.10;;;;;;5015166;28;20108;-78
2022/03/16 08:11:11;;;;;;;141.85;127.38;;;6.50;96.20;;;;;;5032799;28;20058;-77
2022/03/16 08:13:38;;;;;;;139.90;125.70;;;6.60;96.30;;;;;;5014602;28;20050;-78
2022/03/16 08:16:06;;;;;;;137.88;123.80;;;6.70;96.20;;;;;;4998622;28;20136;-77
2022/03/16 08:18:34;;;;;;;134.25;120.75;;;6.80;96.10;;;;;;4997719;28;20050;-76
2022/03/16 08:21:02;;;;;;;136.85;123.25;;;6.80;96.20;;;;;;5012674;28;20073;-77
2022/03/16 08:23:30;;;;;;;138.68;124.80;;;6.90;96.20;;;;;;5011150;28;20104;-76
2022/03/16 08:25:59;;;;;;;139.27;124.90;;;7.00;96.30;;;;;;5014109;28;20582;-77
2022/03/16 08:28:26;;;;;;;137.38;123.20;;;7.00;96.40;;;;;;5011342;28;20145;-77
2022/03/16 08:30:53;;;;;;;140.57;122.75;;;7.10;96.40;;;;;;5014330;28;20050;-77
2022/03/16 08:33:22;;;;;;;134.80;121.10;;;7.20;96.40;;;;;;5033633;28;20046;-76
2022/03/16 08:35:49;;;;;;;134.85;120.88;;;7.30;96.30;;;;;;5017700;28;20064;-77
2022/03/16 08:38:16;;;;;;;136.50;122.40;;;7.30;96.40;;;;;;5035865;28;20138;-76
2022/03/16 08:40:43;;;;;;;134.23;120.47;;;7.50;96.60;;;;;;5018195;28;20432;-76
2022/03/16 08:43:12;;;;;;;137.35;123.38;;;7.50;96.50;;;;;;5017799;28;20496;-76
2022/03/16 08:45:40;;;;;;;137.27;123.10;;;7.60;96.60;;;;;;5017239;28;20129;-76
2022/03/16 08:48:07;;;;;;;137.13;122.90;;;7.70;96.60;;;;;;5016389;28;20054;-76
2022/03/16 08:50:35;;;;;;;138.35;123.93;;;7.80;96.80;;;;;;5016822;28;20046;-76
2022/03/16 08:53:02;;;;;;;136.32;122.43;;;7.90;96.70;;;;;;5017669;28;20209;-76
2022/03/16 08:55:29;;;;;;;134.40;120.70;;;8.00;96.60;;;;;;5036361;28;20062;-76
2022/03/16 08:57:57;;;;;;;138.65;124.20;;;8.10;96.50;;;;;;5016461;28;20661;-76
2022/03/16 09:00:26;;;;;;;137.57;123.63;;;8.20;96.50;;;;;;5017056;28;20495;-76
2022/03/16 09:02:53;;;;;;;137.55;123.55;;;8.30;96.60;;;;;;5017996;28;20104;-76
2022/03/16 09:05:20;;;;;;;137.00;122.43;;;8.40;96.50;;;;;;5001179;28;20053;-77
2022/03/16 09:07:47;;;;;;;138.27;122.75;;;8.50;96.80;;;;;;5034780;28;20045;-77
2022/03/16 09:10:14;;;;;;;138.15;123.65;;;8.60;96.70;;;;;;5031953;28;20062;-76
2022/03/16 09:12:41;;;;;;;136.13;121.82;;;8.70;96.60;;;;;;4997718;28;20050;-76
2022/03/16 09:15:09;;;;;;;134.60;121.10;;;8.90;96.80;;;;;;5013430;28;20074;-76
2022/03/16 09:17:38;;;;;;;136.40;122.65;;;9.00;96.60;;;;;;5034573;28;20046;-76
2022/03/16 09:20:06;;;;;;;136.82;122.95;;;9.10;96.70;;;;;;5017280;28;20053;-76
2022/03/16 09:22:33;;;;;;;133.73;120.35;;;9.20;96.60;;;;;;4999797;28;20502;-76
2022/03/16 09:25:01;;;;;;;133.90;120.07;;;9.30;96.60;;;;;;5017171;28;20054;-76
2022/03/16 09:27:28;;;;;;;130.90;117.90;;;9.30;96.40;;;;;;5017469;28;20587;-76
2022/03/16 09:29:55;;;;;;;137.32;123.07;;;9.50;96.40;;;;;;5037652;28;20052;-77
2022/03/16 09:32:22;;;;;;;132.15;119.00;;;9.60;96.30;;;;;;5016545;28;20053;-76
2022/03/16 09:34:51;;;;;;;132.20;118.88;;;9.70;96.20;;;;;;5008819;28;20590;-76
2022/03/16 09:37:19;;;;;;;129.60;115.40;;;9.80;96.10;;;;;;5016702;28;20517;-77
2022/03/16 09:39:46;;;;;;;130.10;117.28;;;9.90;96.00;;;;;;5016686;28;20049;-77
2022/03/16 09:42:13;;;;;;;127.75;115.25;;;9.90;95.70;;;;;;5015421;28;20054;-78
2022/03/16 09:44:41;;;;;;;128.18;115.35;;;10.00;95.70;;;;;;5016042;28;20128;-77
2022/03/16 09:47:09;;;;;;;128.80;116.32;;;10.10;95.50;;;;;;5015661;28;20565;-77
2022/03/16 09:52:49;;;;;;;205.50;119.45;;;10.30;95.30;;;;;;5071667;28;20152;-77
2022/03/16 09:55:17;;;;;;;125.72;113.18;;;10.40;95.30;;;;;;5075747;28;20053;-77
2022/03/16 09:57:44;;;;;;;128.45;114.85;;;10.50;95.10;;;;;;5074761;28;20056;-77
2022/03/16 10:00:13;;;;;;;128.75;115.88;;;10.60;94.90;;;;;;5075176;28;20506;-76
2022/03/16 10:02:40;;;;;;;159.10;119.45;;;10.70;94.70;;;;;;5074571;28;20828;-77
2022/03/16 10:05:09;;;;;;;133.23;115.70;;;10.80;94.20;;;;;;5056410;28;20048;-78
2022/03/16 10:07:37;;;;;;;128.93;116.15;;;10.90;94.00;;;;;;5050795;28;20080;-77
2022/03/16 10:15:37;;;;;;;125.07;112.82;;;11.30;93.90;;;;;;5055877;28;20140;-77
2022/03/16 10:18:05;;;;;;;146.90;116.50;;;11.30;93.40;;;;;;5056358;28;20079;-79
2022/03/16 10:20:34;;;;;;;125.43;112.43;;;11.40;93.30;;;;;;5074461;28;20049;-78
2022/03/16 10:23:04;;;;;;;125.22;112.57;;;11.50;93.30;;;;;;5056319;28;20084;-78
2022/03/16 10:25:35;;;;;;;126.18;114.05;;;11.60;93.20;;;;;;5056461;28;20052;-78
2022/03/16 10:28:11;;;;;;;167.23;117.18;;;11.60;93.20;;;;;;5054969;28;20055;-77
2022/03/16 10:30:39;;;;;;;;;;;11.70;93.20;;;;;;5056525;28;20818;-77
2022/03/16 10:33:06;;;;;;;137.00;114.18;;;11.80;92.10;;;;;;5058270;28;19924;-78
2022/03/16 10:35:34;;;;;;;128.55;115.30;;;11.90;92.40;;;;;;5072206;28;20076;-77
2022/03/16 10:38:10;;;;;;;126.55;113.80;;;11.90;92.20;;;;;;5055045;28;20049;-77
2022/03/16 10:40:38;;;;;;;;;;;12.00;92.10;;;;;;5074155;28;20053;-77
2022/03/16 10:48:58;;;;;;;125.10;112.47;;;12.10;91.70;;;;;;5055843;28;20049;-77
2022/03/16 10:51:25;;;;;;;127.88;115.47;;;12.20;91.30;;;;;;5073095;28;20180;-77
2022/03/16 10:53:55;;;;;;;130.52;117.93;;;12.20;91.30;;;;;;5073181;28;20048;-77
2022/03/16 10:56:23;;;;;;;210.23;120.63;;;12.30;91.20;;;;;;5054388;28;20045;-77
2022/03/16 11:02:46;;;;;;;124.68;112.47;;;12.40;90.00;;;;;;5054962;28;20053;-78
2022/03/16 11:05:18;;;;;;;128.65;116.40;;;12.60;90.40;;;;;;5054245;28;20045;-79
2022/03/16 11:07:49;;;;;;;127.82;115.82;;;12.60;90.10;;;;;;5052946;28;20124;-79
2022/03/16 11:10:17;;;;;;;130.15;117.53;;;12.70;90.00;;;;;;5052912;28;20057;-79
2022/03/16 11:15:31;;;;;;;125.22;112.65;;;12.90;88.90;;;;;;5055115;28;20052;-79
2022/03/16 11:17:58;;;;;;;126.40;114.25;;;13.00;85.10;;;;;;5073309;28;20075;-79
2022/03/16 11:20:27;;;;;;;245.70;119.38;;;13.00;83.60;;;;;;5039230;28;20045;-82
2022/03/16 11:25:58;;;;;;;133.27;118.30;;;13.20;82.80;;;;;;5073578;28;20045;-80
2022/03/16 11:28:39;;;;;;;252.68;123.20;;;13.30;84.20;;;;;;5038146;28;20059;-77
2022/03/16 11:31:13;;;;;;;139.25;126.32;;;13.40;83.50;;;;;;5043292;28;20049;-78
2022/03/16 11:33:49;;;;;;;126.85;114.20;;;13.50;82.00;;;;;;5016515;28;20045;-77
2022/03/16 11:36:30;;;;;;;128.43;116.28;;;13.60;79.20;;;;;;5027550;28;20049;-76
2022/03/16 11:38:58;;;;;;;126.57;113.60;;;13.70;79.00;;;;;;5036737;28;20073;-79
2022/03/16 11:41:27;;;;;;;128.93;114.10;;;13.80;77.80;;;;;;5035397;28;20049;-77
2022/03/16 11:44:03;;;;;;;128.05;115.47;;;13.80;78.50;;;;;;5053962;28;20529;-78
2022/03/16 11:46:31;;;;;;;126.80;114.97;;;14.00;79.50;;;;;;5066041;28;20053;-78
2022/03/16 11:49:03;;;;;;;126.03;114.32;;;14.00;75.30;;;;;;5053535;28;20049;-77
2022/03/16 11:51:32;;;;;;;128.63;115.90;;;14.10;75.40;;;;;;5053549;28;20465;-79
2022/03/16 11:54:13;;;;;;;141.27;120.05;;;14.10;75.90;;;;;;5054013;28;20045;-79
2022/03/16 11:56:48;;;;;;;131.85;119.45;;;14.20;77.00;;;;;;5072461;28;20070;-79
2022/03/16 11:59:45;;;;;;;129.23;116.85;;;14.30;77.70;;;;;;5054927;28;20148;-83
2022/03/16 12:02:26;;;;;;;183.10;120.30;;;14.40;78.00;;;;;;5054875;28;20512;-81
2022/03/16 12:05:01;;;;;;;130.65;118.07;;;14.50;78.40;;;;;;5073352;28;20546;-81
2022/03/16 12:07:30;;;;;;;129.80;117.20;;;14.60;77.70;;;;;;5053300;28;20048;-81
2022/03/16 12:10:03;;;;;;;130.88;118.97;;;14.70;75.70;;;;;;5058325;28;20156;-83
2022/03/16 12:15:27;;;;;;;131.82;119.47;;;14.80;74.50;;;;;;5041881;28;20557;-79
2022/03/16 12:18:31;;;;;;;133.65;121.30;;;14.90;75.40;;;;;;5058364;28;20053;-79
2022/03/16 12:21:03;;;;;;;139.43;125.93;;;15.00;73.60;;;;;;5054672;28;20136;-78
2022/03/16 12:23:54;;;;;;;133.95;121.68;;;15.10;76.60;;;;;;5057229;28;20068;-78
2022/03/16 12:26:28;;;;;;;135.45;123.35;;;15.20;75.10;;;;;;5040861;28;20052;-82
2022/03/16 12:29:06;;;;;;;136.50;124.43;;;15.20;73.00;;;;;;5056986;28;20135;-83
2022/03/16 12:31:42;;;;;;;138.90;124.03;;;15.30;73.90;;;;;;5074520;28;20438;-83
2022/03/16 12:34:14;;;;;;;136.93;122.47;;;15.40;73.50;;;;;;5039522;28;20589;-80
2022/03/16 12:36:41;;;;;;;134.10;122.18;;;15.50;74.70;;;;;;5055026;28;20601;-79
2022/03/16 12:39:12;;;;;;;135.95;123.90;;;15.60;72.40;;;;;;5075022;28;20057;-79
2022/03/16 12:44:25;;;;;;;;;;;15.70;71.50;;;;;;5057979;28;20072;-79
2022/03/16 12:47:04;;;;;;;165.75;123.78;;;15.80;70.50;;;;;;5057387;28;19968;-81
2022/03/16 12:49:32;;;;;;;133.38;121.90;;;15.90;70.50;;;;;;5058393;28;20084;-80
2022/03/16 12:52:02;;;;;;;133.77;122.32;;;16.00;69.90;;;;;;5057459;28;20077;-80
2022/03/16 12:54:30;;;;;;;136.77;123.63;;;16.10;70.10;;;;;;5058194;28;20128;-80
2022/03/16 12:57:02;;;;;;;135.35;123.00;;;16.20;69.20;;;;;;5057773;28;20056;-80
2022/03/16 12:59:30;;;;;;;133.13;121.60;;;16.30;68.40;;;;;;5058042;28;20095;-80
2022/03/16 13:02:01;;;;;;;133.50;121.43;;;16.40;66.70;;;;;;5076229;28;20127;-79
2022/03/16 13:04:30;;;;;;;130.90;119.25;;;16.40;63.30;;;;;;5041160;28;20052;-79